Marina Municipal Airport

KOAR · California, Estados Unidos

METAR pasados KOAR · Marina Municipal Airport

A continuación puedes ver los METAR de los últimos días. Selecciona un año para ver los METAR más antiguos, desde el año 2007 en adelante.

19 de julio de 2024

Hora Código Tiempo Temp. Visibilidad Cielo nuboso Viento METAR/SPECI
00:35
L
7 °C 10 mi 400 ft 260° 260° 10 kt METAR KOAR 190735Z AUTO 26010KT 10SM OVC004 07/07 A3003 RMK AO2
00:15
L
7 °C 10 mi 400 ft 270° 270° 8 kt METAR KOAR 190715Z AUTO 27008KT 10SM OVC004 07/07 A3003 RMK AO2

18 de julio de 2024

Hora Código Tiempo Temp. Visibilidad Cielo nuboso Viento METAR/SPECI
23:55
L
7 °C 7 mi 200 ft 260° 260° 8 kt METAR KOAR 190655Z AUTO 26008KT 7SM OVC002 07/07 A3003 RMK AO2
23:35
L
7 °C ¾ mi 200 ft 250° 250° 13 kt METAR KOAR 190635Z AUTO 25013KT 3/4SM -DZ OVC002 07/06 A3003 RMK AO2
23:15
L
6 °C ½ mi 200 ft 250° 250° 13 kt METAR KOAR 190615Z AUTO 25013KT 1/2SM -DZ OVC002 06/06 A3003 RMK AO2
22:55
L
7 °C ½ mi 200 ft 260° 260° 15 kt METAR KOAR 190555Z AUTO 26015KT 1/2SM -DZ OVC002 07/06 A3003 RMK AO2
22:35
L
7 °C ¾ mi 200 ft 260° 260° 15 kt METAR KOAR 190535Z AUTO 26015KT 3/4SM -DZ OVC002 07/06 A3003 RMK AO2
22:15
L
7 °C 1½ mi 200 ft 260° 260° 12 kt METAR KOAR 190515Z AUTO 26012KT 1 1/2SM -RA OVC002 07/06 A3004 RMK AO2 VIS 1V2 1/2
21:55
L
7 °C 5 mi 400 ft 260° 260° 14 kt METAR KOAR 190455Z AUTO 26014KT 5SM BR OVC004 07/06 A3004 RMK AO2
21:35
L
7 °C 10 mi 400 ft 250° 250° 13 kt METAR KOAR 190435Z AUTO 25013KT 10SM OVC004 07/07 A3003 RMK AO2
21:15
L
7 °C 10 mi 400 ft 250° 250° 13 kt METAR KOAR 190415Z AUTO 25013KT 10SM OVC004 07/06 A3003 RMK AO2
20:55
L
7 °C 10 mi 400 ft 250° 250° 15 kt METAR KOAR 190355Z AUTO 25015KT 10SM OVC004 07/06 A3003 RMK AO2
20:35
L
7 °C 10 mi 400 ft 250° 250° 15 kt METAR KOAR 190335Z AUTO 25015KT 10SM OVC004 07/06 A3002 RMK AO2
20:15
L
7 °C 10 mi 400 ft 250° 250° 15 - 19 kt METAR KOAR 190315Z AUTO 25015G19KT 10SM OVC004 07/06 A3002 RMK AO2
19:55
L
7 °C 10 mi 400 ft 250° 250° 14 - 18 kt METAR KOAR 190255Z AUTO 25014G18KT 10SM OVC004 07/06 A3002 RMK AO2
19:35
L
7 °C 10 mi 400 ft 250° 250° 12 kt METAR KOAR 190235Z AUTO 25012KT 10SM OVC004 07/06 A3002 RMK AO2
19:15
L
8 °C 10 mi 400 ft 250° 250° 11 - 15 kt METAR KOAR 190215Z AUTO 25011G15KT 10SM OVC004 08/07 A3002 RMK AO2
18:55
L
8 °C 10 mi 400 ft 250° 250° 12 kt METAR KOAR 190155Z AUTO 25012KT 10SM OVC004 08/06 A3002 RMK AO2
18:35
L
8 °C 10 mi 400 ft 260° 260° 14 - 18 kt METAR KOAR 190135Z AUTO 26014G18KT 10SM OVC004 08/06 A3001 RMK AO2
18:15
L
8 °C 10 mi 400 ft 250° 250° 11 - 15 kt METAR KOAR 190115Z AUTO 25011G15KT 10SM OVC004 08/07 A3001 RMK AO2
17:55
L
8 °C 10 mi 400 ft 270° 270° 13 - 17 kt METAR KOAR 190055Z AUTO 27013G17KT 10SM OVC004 08/07 A3001 RMK AO2
17:35
L
8 °C 10 mi 400 ft 270° 270° 11 kt METAR KOAR 190035Z AUTO 27011KT 10SM OVC004 08/07 A3001 RMK AO2
17:15
L
8 °C 10 mi 400 ft 260° 260° 12 kt METAR KOAR 190015Z AUTO 26012KT 10SM OVC004 08/06 A3002 RMK AO2
16:55
L
9 °C 10 mi 400 ft 270° 270° 14 - 17 kt METAR KOAR 182355Z AUTO 27014G17KT 10SM OVC004 09/07 A3002 RMK AO2
16:35
L
9 °C 10 mi 400 ft 260° 260° 15 kt METAR KOAR 182335Z AUTO 26015KT 10SM OVC004 09/07 A3002 RMK AO2
16:15
L
10 °C 10 mi 400 ft 270° 270° 13 kt METAR KOAR 182315Z AUTO 27013KT 10SM OVC004 10/07 A3002 RMK AO2
15:55
L
10 °C 10 mi 400 ft 260° 260° 17 - 21 kt METAR KOAR 182255Z AUTO 26017G21KT 10SM OVC004 10/07 A3002 RMK AO2
15:35
L
10 °C 10 mi 400 ft 260° 260° 15 kt METAR KOAR 182235Z AUTO 26015KT 10SM OVC004 10/07 A3002 RMK AO2
15:15
L
11 °C 10 mi 400 ft 280° 280° 16 - 20 kt METAR KOAR 182215Z AUTO 28016G20KT 10SM OVC004 11/07 A3002 RMK AO2
14:55
I
10 °C 10 mi 600 ft 270° 270° 17 - 20 kt METAR KOAR 182155Z AUTO 27017G20KT 10SM OVC006 10/06 A3002 RMK AO2
14:35
I
11 °C 10 mi 600 ft 270° 270° 16 - 19 kt METAR KOAR 182135Z AUTO 27016G19KT 10SM OVC006 11/07 A3002 RMK AO2
14:15
I
11 °C 10 mi 600 ft 290° 290° 16 - 19 kt METAR KOAR 182115Z AUTO 29016G19KT 10SM OVC006 11/07 A3002 RMK AO2
13:55
I
11 °C 10 mi 600 ft 280° 280° 13 - 20 kt METAR KOAR 182055Z AUTO 28013G20KT 10SM OVC006 11/07 A3003 RMK AO2
13:35
I
11 °C 10 mi 600 ft 270° 270° 16 - 21 kt METAR KOAR 182035Z AUTO 27016G21KT 10SM OVC006 11/07 A3002 RMK AO2
13:15
I
11 °C 10 mi 600 ft 280° 280° 15 kt METAR KOAR 182015Z AUTO 28015KT 10SM BKN006 11/07 A3003 RMK AO2
12:55
I
10 °C 10 mi 600 ft 280° 280° 14 - 18 kt METAR KOAR 181955Z AUTO 28014G18KT 10SM BKN006 10/06 A3003 RMK AO2
12:35
I
10 °C 10 mi 600 ft 280° 280° 14 kt METAR KOAR 181935Z AUTO 28014KT 10SM BKN006 10/06 A3003 RMK AO2
12:15
I
10 °C 10 mi 600 ft 270° 270° 14 kt METAR KOAR 181915Z AUTO 27014KT 10SM BKN006 10/06 A3003 RMK AO2
11:55
I
11 °C 10 mi 600 ft 260° 260° 14 kt METAR KOAR 181855Z AUTO 26014KT 10SM BKN006 11/07 A3003 RMK AO2
11:35
I
10 °C 10 mi 600 ft 270° 270° 13 kt METAR KOAR 181835Z AUTO 27013KT 10SM BKN006 10/06 A3003 RMK AO2
11:15
I
11 °C 10 mi 600 ft 280° 280° 12 kt METAR KOAR 181815Z AUTO 28012KT 10SM OVC006 11/07 A3003 RMK AO2
10:55
I
10 °C 10 mi 600 ft 270° 270° 10 kt METAR KOAR 181755Z AUTO 27010KT 10SM BKN006 10/07 A3003 RMK AO2
10:35
L
9 °C 10 mi 400 ft 270° 270° 9 kt METAR KOAR 181735Z AUTO 27009KT 10SM BKN004 09/07 A3003 RMK AO2
10:15
L
10 °C 10 mi 400 ft 250° 250° 7 kt METAR KOAR 181715Z AUTO 25007KT 10SM OVC004 10/07 A3003 RMK AO2
09:55
L
8 °C 10 mi 400 ft 270° 270° 7 kt METAR KOAR 181655Z AUTO 27007KT 10SM OVC004 08/07 A3003 RMK AO2
09:35
L
8 °C 10 mi 200 ft 240° 240° 7 kt METAR KOAR 181635Z AUTO 24007KT 10SM OVC002 08/07 A3003 RMK AO2
09:15
L
7 °C 5 mi 200 ft 250° 250° 5 kt METAR KOAR 181615Z AUTO 25005KT 5SM BR OVC002 07/07 A3002 RMK AO2
08:55
L
7 °C 1¾ mi 200 ft 250° 250° 5 kt METAR KOAR 181555Z AUTO 25005KT 1 3/4SM BR OVC002 07/07 A3002 RMK AO2
08:35
L
7 °C ½ mi 200 ft 250° 250° 4 kt METAR KOAR 181535Z AUTO 25004KT 1/2SM -DZ OVC002 07/07 A3002 RMK AO2
08:15
L
7 °C ¾ mi 200 ft 250° 250° 4 kt METAR KOAR 181515Z AUTO 25004KT 3/4SM BR OVC002 07/07 A3001 RMK AO2
07:55
L
7 °C ¼ mi 200 ft 360° 360° 0 kt METAR KOAR 181455Z AUTO 00000KT 1/4SM FG OVC002 07/07 A3002 RMK AO2
07:35
L
6 °C ¼ mi 200 ft 360° 360° 0 kt METAR KOAR 181435Z AUTO 00000KT 1/4SM FG OVC002 06/06 A3000 RMK AO2
07:15
L
6 °C ¼ mi 200 ft 360° 360° 0 kt METAR KOAR 181415Z AUTO 00000KT 1/4SM FG OVC002 06/06 A3000 RMK AO2
06:55
L
6 °C ¼ mi 200 ft 260° 260° 3 kt METAR KOAR 181355Z AUTO 26003KT 1/4SM FG OVC002 06/06 A3000 RMK AO2
06:35
L
6 °C ¼ mi 200 ft 360° 360° 0 kt METAR KOAR 181335Z AUTO 00000KT M1/4SM FG OVC002 06/06 A2999 RMK AO2
06:15
L
6 °C ¼ mi 200 ft 360° 360° 0 kt METAR KOAR 181315Z AUTO 00000KT M1/4SM FG OVC002 06/06 A3000 RMK AO2
05:55
L
6 °C ¼ mi 200 ft 160° 160° 3 kt METAR KOAR 181255Z AUTO 16003KT M1/4SM FG OVC002 06/06 A3000 RMK AO2
05:35
L
6 °C ¼ mi 200 ft 180° 180° 4 kt METAR KOAR 181235Z AUTO 18004KT 1/4SM FG OVC002 06/06 A3000 RMK AO2
05:15
L
6 °C ½ mi 200 ft 230° 230° 3 kt METAR KOAR 181215Z AUTO 23003KT 1/2SM -RA OVC002 06/06 A3000 RMK AO2
04:55
L
7 °C ½ mi 200 ft 240° 240° 3 kt METAR KOAR 181155Z AUTO 24003KT 1/2SM FG OVC002 07/07 A2999 RMK AO2
04:35
L
6 °C ½ mi 200 ft 250° 250° 6 kt METAR KOAR 181135Z AUTO 25006KT 1/2SM -DZ OVC002 06/06 A2999 RMK AO2
04:15
L
6 °C ¾ mi 200 ft 240° 240° 7 kt METAR KOAR 181115Z AUTO 24007KT 3/4SM -RA OVC002 06/06 A2998 RMK AO2
03:55
L
7 °C ¾ mi 200 ft 260° 260° 6 kt METAR KOAR 181055Z AUTO 26006KT 3/4SM -RA OVC002 07/07 A2998 RMK AO2
03:35
L
7 °C ¾ mi 200 ft 250° 250° 8 kt METAR KOAR 181035Z AUTO 25008KT 3/4SM -DZ OVC002 07/07 A2998 RMK AO2
03:15
L
7 °C ½ mi 200 ft 250° 250° 9 kt METAR KOAR 181015Z AUTO 25009KT 1/2SM -RA OVC002 07/07 A2998 RMK AO2
02:55
L
7 °C ½ mi 200 ft 250° 250° 10 kt METAR KOAR 180955Z AUTO 25010KT 1/2SM -DZ OVC002 07/07 A2999 RMK AO2
02:35
L
7 °C ½ mi 200 ft 250° 250° 11 kt METAR KOAR 180935Z AUTO 25011KT 1/2SM -DZ OVC002 07/07 A2999 RMK AO2
02:15
L
6 °C ¾ mi 200 ft 260° 260° 9 kt METAR KOAR 180915Z AUTO 26009KT 3/4SM -DZ OVC002 06/06 A2999 RMK AO2
01:55
L
7 °C 1 mi 200 ft 260° 260° 9 kt METAR KOAR 180855Z AUTO 26009KT 1SM -DZ OVC002 07/06 A2999 RMK AO2
01:35
L
7 °C ½ mi 200 ft 260° 260° 12 kt METAR KOAR 180835Z AUTO 26012KT 1/2SM -DZ OVC002 07/07 A3000 RMK AO2
01:15
L
7 °C ¾ mi 200 ft 250° 250° 11 kt METAR KOAR 180815Z AUTO 25011KT 3/4SM -DZ OVC002 07/06 A3000 RMK AO2
00:55
L
7 °C 1 mi 200 ft 250° 250° 12 kt METAR KOAR 180755Z AUTO 25012KT 1SM -DZ OVC002 07/06 A3000 RMK AO2
00:35
L
7 °C ¾ mi 200 ft 250° 250° 11 kt METAR KOAR 180735Z AUTO 25011KT 3/4SM -DZ OVC002 07/06 A3000 RMK AO2
00:15
L
7 °C ¾ mi 200 ft 250° 250° 10 kt METAR KOAR 180715Z AUTO 25010KT 3/4SM -DZ OVC002 07/06 A3000 RMK AO2

17 de julio de 2024

Hora Código Tiempo Temp. Visibilidad Cielo nuboso Viento METAR/SPECI
23:55
L
7 °C ¾ mi 200 ft 250° 250° 14 kt METAR KOAR 180655Z AUTO 25014KT 3/4SM -DZ OVC002 07/06 A3000 RMK AO2
23:35
L
7 °C ¾ mi 200 ft 260° 260° 12 kt METAR KOAR 180635Z AUTO 26012KT 3/4SM -DZ OVC002 07/06 A3000 RMK AO2
23:15
L
7 °C 1 mi 200 ft 250° 250° 14 kt METAR KOAR 180615Z AUTO 25014KT 1SM -DZ OVC002 07/07 A3000 RMK AO2
22:55
L
7 °C 1¾ mi 200 ft 250° 250° 16 kt METAR KOAR 180555Z AUTO 25016KT 1 3/4SM -DZ OVC002 07/07 A3000 RMK AO2
22:35
L
7 °C 1¾ mi 200 ft 250° 250° 16 kt METAR KOAR 180535Z AUTO 25016KT 1 3/4SM -RA OVC002 07/07 A3000 RMK AO2
22:15
L
7 °C 1¾ mi 200 ft 240° 240° 15 kt METAR KOAR 180515Z AUTO 24015KT 1 3/4SM -DZ OVC002 07/07 A3000 RMK AO2
21:55
L
7 °C 2 mi 200 ft 240° 240° 14 kt METAR KOAR 180455Z AUTO 24014KT 2SM -DZ OVC002 07/07 A3000 RMK AO2
21:35
L
7 °C 2½ mi 200 ft 260° 260° 14 - 20 kt METAR KOAR 180435Z AUTO 26014G20KT 2 1/2SM -RA OVC002 07/07 A3000 RMK AO2 VIS 1 1/2V5
21:15
L
7 °C 7 mi 200 ft 250° 250° 14 kt METAR KOAR 180415Z AUTO 25014KT 7SM OVC002 07/07 A3000 RMK AO2
20:55
L
7 °C 7 mi 200 ft 250° 250° 15 kt METAR KOAR 180355Z AUTO 25015KT 7SM OVC002 07/07 A2999 RMK AO2
20:35
L
7 °C 10 mi 400 ft 250° 250° 15 kt METAR KOAR 180335Z AUTO 25015KT 10SM OVC004 07/07 A2999 RMK AO2
20:15
L
7 °C 10 mi 400 ft 250° 250° 16 kt METAR KOAR 180315Z AUTO 25016KT 10SM OVC004 07/07 A2998 RMK AO2
19:55
L
8 °C 10 mi 400 ft 250° 250° 19 kt METAR KOAR 180255Z AUTO 25019KT 10SM BKN004 08/07 A2998 RMK AO2
19:35
V
8 °C 10 mi - 250° 250° 17 - 22 kt METAR KOAR 180235Z AUTO 25017G22KT 10SM SCT004 08/07 A2998 RMK AO2
19:15
V
9 °C 10 mi - 250° 250° 18 - 21 kt METAR KOAR 180215Z AUTO 25018G21KT 10SM SCT005 09/07 A2998 RMK AO2
18:55
I
9 °C 10 mi 500 ft 250° 250° 17 kt METAR KOAR 180155Z AUTO 25017KT 10SM BKN005 09/06 A2998 RMK AO2
18:35
I
9 °C 10 mi 500 ft 250° 250° 18 kt METAR KOAR 180135Z AUTO 25018KT 10SM BKN005 09/06 A2998 RMK AO2
18:15
I
9 °C 10 mi 500 ft 260° 260° 17 - 22 kt METAR KOAR 180115Z AUTO 26017G22KT 10SM OVC005 09/07 A2998 RMK AO2
17:55
I
10 °C 10 mi 500 ft 260° 260° 15 - 20 kt METAR KOAR 180055Z AUTO 26015G20KT 10SM OVC005 10/07 A2999 RMK AO2
17:35
I
10 °C 10 mi 500 ft 260° 260° 15 kt METAR KOAR 180035Z AUTO 26015KT 10SM OVC005 10/07 A2999 RMK AO2
17:15
I
10 °C 10 mi 500 ft 260° 260° 15 kt METAR KOAR 180015Z AUTO 26015KT 10SM OVC005 10/07 A3000 RMK AO2
16:55
I
11 °C 10 mi 500 ft 260° 260° 16 - 19 kt METAR KOAR 172355Z AUTO 26016G19KT 10SM BKN005 11/07 A3000 RMK AO2
16:35
V
11 °C 10 mi - 270° 270° 14 kt METAR KOAR 172335Z AUTO 27014KT 10SM CLR 11/07 A3001 RMK AO2
16:15
V
11 °C 10 mi - 270° 270° 16 kt METAR KOAR 172315Z AUTO 27016KT 10SM CLR 11/06 A3001 RMK AO2
15:55
V
11 °C 10 mi - 260° 260° 14 kt METAR KOAR 172255Z AUTO 26014KT 10SM CLR 11/07 A3002 RMK AO2
15:35
V
12 °C 10 mi - 270° 270° 15 - 19 kt METAR KOAR 172235Z AUTO 27015G19KT 10SM CLR 12/07 A3002 RMK AO2
15:15
V
12 °C 10 mi - 290° 290° 12 - 16 kt METAR KOAR 172215Z AUTO 29012G16KT 10SM CLR 12/07 A3002 RMK AO2
14:55
V
12 °C 10 mi - 280° 280° 14 - 17 kt METAR KOAR 172155Z AUTO 28014G17KT 10SM CLR 12/07 A3003 RMK AO2
14:35
V
12 °C 10 mi - 290° 290° 12 - 18 kt METAR KOAR 172135Z AUTO 29012G18KT 10SM CLR 12/07 A3003 RMK AO2
14:15
V
12 °C 10 mi - 290° 290° 11 - 18 kt METAR KOAR 172115Z AUTO 29011G18KT 10SM CLR 12/07 A3003 RMK AO2
13:55
V
12 °C 10 mi - 280° 280° 15 kt METAR KOAR 172055Z AUTO 28015KT 10SM CLR 12/07 A3003 RMK AO2
13:35
V
12 °C 10 mi - 280° 280° 10 - 16 kt METAR KOAR 172035Z AUTO 28010G16KT 10SM CLR 12/06 A3004 RMK AO2
13:15
V
12 °C 10 mi - 280° 280° 11 - 16 kt METAR KOAR 172015Z AUTO 28011G16KT 10SM CLR 12/06 A3004 RMK AO2
12:55
V
12 °C 10 mi - 270° 270° 13 - 16 kt METAR KOAR 171955Z AUTO 27013G16KT 10SM CLR 12/06 A3004 RMK AO2
12:35
V
13 °C 10 mi - 290° 290° 11 kt METAR KOAR 171935Z AUTO 29011KT 10SM CLR 13/06 A3004 RMK AO2
12:15
V
13 °C 10 mi - 280° 280° 9 kt METAR KOAR 171915Z AUTO 28009KT 10SM CLR 13/06 A3004 RMK AO2
11:55
V
12 °C 10 mi - 290° 290° 7 kt METAR KOAR 171855Z AUTO 29007KT 240V310 10SM CLR 12/06 A3004 RMK AO2
11:35
V
12 °C 10 mi - 290° 290° 5 kt METAR KOAR 171835Z AUTO 29005KT 10SM CLR 12/06 A3004 RMK AO2
11:15
V
13 °C 10 mi - 030° 030° 6 kt METAR KOAR 171815Z AUTO 03006KT 10SM CLR 13/06 A3004 RMK AO2
10:55
V
13 °C 10 mi - 060° 060° 3 kt METAR KOAR 171755Z AUTO 06003KT 10SM CLR 13/07 A3005 RMK AO2
10:35
V
12 °C 10 mi - 030° 030° 3 kt METAR KOAR 171735Z AUTO 03003KT 10SM CLR 12/07 A3005 RMK AO2
10:15
V
11 °C 10 mi - 080° 080° 3 kt METAR KOAR 171715Z AUTO 08003KT 10SM CLR 11/06 A3005 RMK AO2
09:55
V
10 °C 10 mi - 360° 360° 0 kt METAR KOAR 171655Z AUTO 00000KT 10SM SCT013 10/06 A3005 RMK AO2
09:35
M
10 °C 10 mi 1.100 ft 100° 100° 4 kt METAR KOAR 171635Z AUTO 10004KT 10SM BKN011 10/06 A3005 RMK AO2
09:15
M
10 °C 10 mi 1.100 ft 120° 120° 3 kt METAR KOAR 171615Z AUTO 12003KT 10SM BKN011 10/06 A3005 RMK AO2
08:55
I
9 °C 10 mi 900 ft 120° 120° 3 kt METAR KOAR 171555Z AUTO 12003KT 10SM BKN009 09/06 A3005 RMK AO2
08:35
I
8 °C 10 mi 900 ft 070° 070° 3 kt METAR KOAR 171535Z AUTO 07003KT 10SM OVC009 08/06 A3005 RMK AO2
08:15
I
8 °C 10 mi 900 ft 120° 120° 3 kt METAR KOAR 171515Z AUTO 12003KT 10SM BKN009 08/06 A3005 RMK AO2
07:55
I
8 °C 10 mi 900 ft 120° 120° 4 kt METAR KOAR 171455Z AUTO 12004KT 10SM BKN009 08/06 A3005 RMK AO2
07:35
M
7 °C 10 mi 1.100 ft 360° 360° 0 kt METAR KOAR 171435Z AUTO 00000KT 10SM OVC011 07/06 A3005 RMK AO2
07:15
M
6 °C 10 mi 1.100 ft 360° 360° 0 kt METAR KOAR 171415Z AUTO 00000KT 10SM OVC011 06/06 A3004 RMK AO2
06:55
M
6 °C 10 mi 1.100 ft 360° 360° 0 kt METAR KOAR 171355Z AUTO 00000KT 10SM OVC011 06/05 A3004 RMK AO2
06:35
M
5 °C 10 mi 1.100 ft 180° 180° 3 kt METAR KOAR 171335Z AUTO 18003KT 10SM OVC011 05/05 A3003 RMK AO2
06:15
M
4 °C 10 mi 1.100 ft 150° 150° 5 kt METAR KOAR 171315Z AUTO 15005KT 10SM BKN011 04/03 A3003 RMK AO2
05:55
V
4 °C 10 mi - 150° 150° 4 kt METAR KOAR 171255Z AUTO 15004KT 10SM SCT011 04/04 A3002 RMK AO2
05:35
V
5 °C 10 mi - 140° 140° 3 kt METAR KOAR 171235Z AUTO 14003KT 10SM CLR 05/05 A3002 RMK AO2
05:15
V
6 °C 10 mi - 360° 360° 0 kt METAR KOAR 171215Z AUTO 00000KT 10SM CLR 06/05 A3002 RMK AO2
04:55
V
6 °C 10 mi - 360° 360° 0 kt METAR KOAR 171155Z AUTO 00000KT 10SM CLR 06/05 A3002 RMK AO2
04:35
V
6 °C 10 mi - 360° 360° 0 kt METAR KOAR 171135Z AUTO 00000KT 10SM SCT005 06/06 A3001 RMK AO2
04:15
I
7 °C 10 mi 700 ft 360° 360° 0 kt METAR KOAR 171115Z AUTO 00000KT 10SM BKN007 07/06 A3001 RMK AO2
03:55
V
6 °C 10 mi - 360° 360° 0 kt METAR KOAR 171055Z AUTO 00000KT 10SM SCT007 06/06 A3002 RMK AO2
03:35
V
7 °C 10 mi - 240° 240° 4 kt METAR KOAR 171035Z AUTO 24004KT 10SM SCT007 07/06 A3001 RMK AO2
03:15
V
7 °C 10 mi - 240° 240° 4 kt METAR KOAR 171015Z AUTO 24004KT 10SM SCT007 07/06 A3002 RMK AO2
02:55
I
7 °C 10 mi 700 ft 240° 240° 5 kt METAR KOAR 170955Z AUTO 24005KT 10SM BKN007 07/06 A3002 RMK AO2
02:35
V
7 °C 10 mi - 240° 240° 6 kt METAR KOAR 170935Z AUTO 24006KT 10SM SCT009 07/06 A3002 RMK AO2
02:15
I
7 °C 10 mi 900 ft 230° 230° 4 kt METAR KOAR 170915Z AUTO 23004KT 10SM BKN009 07/06 A3002 RMK AO2
01:55
I
7 °C 10 mi 900 ft 240° 240° 4 kt METAR KOAR 170855Z AUTO 24004KT 10SM OVC009 07/06 A3002 RMK AO2
01:35
M
7 °C 10 mi 1.100 ft 240° 240° 5 kt METAR KOAR 170835Z AUTO 24005KT 10SM BKN011 07/06 A3002 RMK AO2
01:15
M
7 °C 10 mi 1.100 ft 240° 240° 5 kt METAR KOAR 170815Z AUTO 24005KT 10SM BKN011 07/06 A3003 RMK AO2
00:55
M
7 °C 10 mi 1.100 ft 240° 240° 5 kt METAR KOAR 170755Z AUTO 24005KT 10SM BKN011 07/06 A3003 RMK AO2
00:35
V
7 °C 10 mi - 240° 240° 5 kt METAR KOAR 170735Z AUTO 24005KT 10SM CLR 07/06 A3004 RMK AO2
00:15
V
7 °C 10 mi - 220° 220° 5 kt METAR KOAR 170715Z AUTO 22005KT 10SM CLR 07/06 A3004 RMK AO2

16 de julio de 2024

Hora Código Tiempo Temp. Visibilidad Cielo nuboso Viento METAR/SPECI
23:55
V
7 °C 10 mi - 220° 220° 4 kt METAR KOAR 170655Z AUTO 22004KT 10SM CLR 07/06 A3004 RMK AO2
23:35
V
7 °C 10 mi - 220° 220° 4 kt METAR KOAR 170635Z AUTO 22004KT 10SM CLR 07/06 A3004 RMK AO2
23:15
V
7 °C 10 mi - 250° 250° 4 kt METAR KOAR 170615Z AUTO 25004KT 10SM CLR 07/06 A3004 RMK AO2
22:55
V
7 °C 10 mi - 260° 260° 5 kt METAR KOAR 170555Z AUTO 26005KT 10SM CLR 07/06 A3004 RMK AO2
Cambiar esta información